createdAt,value
2018-09-12T00:00:37.913Z,13.80
2018-09-12T00:03:06.246Z,8.27
2018-09-12T00:05:34.554Z,10.27
2018-09-12T00:08:02.850Z,8.50
2018-09-12T00:10:31.122Z,10.80
2018-09-12T00:12:59.356Z,11.60
2018-09-12T00:15:27.723Z,13.50
2018-09-12T00:17:55.962Z,7.37
2018-09-12T00:20:24.237Z,7.17
2018-09-12T00:22:52.657Z,8.40
2018-09-12T00:25:20.937Z,10.93
2018-09-12T00:27:49.195Z,10.53
2018-09-12T00:30:17.494Z,9.40
2018-09-12T00:32:45.729Z,9.67
2018-09-12T00:35:14.251Z,9.43
2018-09-12T00:37:42.500Z,11.50
2018-09-12T00:40:10.757Z,9.07
2018-09-12T00:42:39.002Z,7.80
2018-09-12T00:45:07.338Z,9.00
2018-09-12T00:47:35.582Z,10.03
2018-09-12T00:50:03.871Z,9.13
2018-09-12T00:52:32.156Z,8.80
2018-09-12T00:55:00.414Z,10.67
2018-09-12T00:57:28.746Z,9.33
2018-09-12T00:59:57.134Z,11.70
2018-09-12T01:02:25.614Z,5.87
2018-09-12T01:04:53.956Z,6.67
2018-09-12T01:07:22.219Z,9.77
2018-09-12T01:09:50.469Z,12.00
2018-09-12T01:12:18.754Z,9.33
2018-09-12T01:14:47.026Z,6.97
2018-09-12T01:17:15.314Z,10.07
2018-09-12T01:19:44.992Z,9.47
2018-09-12T01:22:13.310Z,6.77
2018-09-12T01:24:41.557Z,9.23
2018-09-12T01:27:09.850Z,11.17
2018-09-12T01:29:38.198Z,13.27
2018-09-12T01:32:06.467Z,9.83
2018-09-12T01:34:34.710Z,11.83
2018-09-12T01:37:02.981Z,10.00
2018-09-12T01:39:31.223Z,10.00
2018-09-12T01:41:59.574Z,9.90
2018-09-12T01:44:27.834Z,7.80
2018-09-12T01:46:56.137Z,8.13
2018-09-12T01:49:24.438Z,9.87
2018-09-12T01:51:52.712Z,9.70
2018-09-12T01:54:20.971Z,8.90
2018-09-12T01:56:49.257Z,9.53
2018-09-12T01:59:17.629Z,5.60
2018-09-12T02:01:46.196Z,9.27
2018-09-12T02:04:14.593Z,9.33
2018-09-12T02:06:42.885Z,9.10
2018-09-12T02:09:14.017Z,8.43
2018-09-12T02:11:42.315Z,8.50
2018-09-12T02:14:10.601Z,13.50
2018-09-12T02:16:38.901Z,12.07
2018-09-12T02:19:07.181Z,10.07
2018-09-12T02:21:35.492Z,13.13
2018-09-12T02:24:03.737Z,8.47
2018-09-12T02:26:32.031Z,8.37
2018-09-12T02:29:00.339Z,11.87
2018-09-12T02:31:28.589Z,6.80
2018-09-12T02:33:56.825Z,7.70
2018-09-12T02:36:29.264Z,7.03
2018-09-12T02:38:58.758Z,8.40
2018-09-12T02:41:27.021Z,13.53
2018-09-12T02:43:55.638Z,10.07
2018-09-12T02:46:24.063Z,13.23
2018-09-12T02:48:52.609Z,11.10
2018-09-12T02:51:20.893Z,8.70
2018-09-12T02:53:49.126Z,9.57
2018-09-12T02:56:17.739Z,11.60
2018-09-12T02:58:46.217Z,15.90
2018-09-12T03:01:14.599Z,6.23
2018-09-12T03:03:43.080Z,15.07
2018-09-12T03:06:11.395Z,14.57
2018-09-12T03:08:39.658Z,8.93
2018-09-12T03:11:07.919Z,9.80
2018-09-12T03:13:36.394Z,16.43
2018-09-12T03:16:04.671Z,9.73
2018-09-12T03:18:32.936Z,6.77
2018-09-12T03:21:01.460Z,10.43
2018-09-12T03:23:29.709Z,11.77
2018-09-12T03:25:57.928Z,9.67
2018-09-12T03:28:26.265Z,9.23
2018-09-12T03:30:54.499Z,10.00
2018-09-12T03:33:22.768Z,8.83
2018-09-12T03:35:51.036Z,11.70
2018-09-12T03:38:19.380Z,9.33
2018-09-12T03:40:47.855Z,12.23
2018-09-12T03:43:16.114Z,9.57
2018-09-12T03:45:44.346Z,6.87
2018-09-12T03:48:12.760Z,9.57
2018-09-12T03:50:40.942Z,9.50
2018-09-12T03:53:09.238Z,9.37
2018-09-12T03:55:37.473Z,9.97
2018-09-12T03:58:05.908Z,8.53
2018-09-12T04:00:34.182Z,10.80
2018-09-12T04:03:02.454Z,8.57
2018-09-12T04:05:30.682Z,9.87
2018-09-12T04:07:59.053Z,12.10
2018-09-12T04:10:27.292Z,13.80
2018-09-12T04:12:55.542Z,11.17
2018-09-12T04:15:23.809Z,13.77
2018-09-12T04:17:52.065Z,13.30
2018-09-12T04:20:20.317Z,9.80
2018-09-12T04:22:48.685Z,12.20
2018-09-12T04:25:16.949Z,12.23
2018-09-12T04:27:45.352Z,12.57
2018-09-12T04:30:20.084Z,17.13
2018-09-12T04:32:48.332Z,16.97
2018-09-12T04:35:16.616Z,12.30
2018-09-12T04:37:44.898Z,12.90
2018-09-12T04:40:13.135Z,14.77
2018-09-12T04:42:41.473Z,17.17
2018-09-12T04:45:09.676Z,24.60
2018-09-12T04:47:37.923Z,34.37
2018-09-12T04:50:07.272Z,47.50
2018-09-12T04:52:35.535Z,41.20
2018-09-12T04:55:03.807Z,68.83
2018-09-12T04:57:32.104Z,49.90
2018-09-12T05:00:00.348Z,36.20
2018-09-12T05:02:28.601Z,24.50
2018-09-12T05:04:56.937Z,20.83
2018-09-12T05:07:25.244Z,16.93
2018-09-12T05:09:53.483Z,14.47
2018-09-12T05:12:21.782Z,15.20
2018-09-12T05:14:50.070Z,12.97
2018-09-12T05:17:18.325Z,12.23
2018-09-12T05:19:46.637Z,11.50
2018-09-12T05:22:14.897Z,16.97
2018-09-12T05:24:43.295Z,10.07
2018-09-12T05:27:11.589Z,19.50
2018-09-12T05:29:39.955Z,12.17
2018-09-12T05:32:08.222Z,17.70
2018-09-12T05:34:36.481Z,21.83
2018-09-12T05:37:04.754Z,16.00
2018-09-12T05:39:33.021Z,26.73
2018-09-12T05:42:01.318Z,21.10
2018-09-12T05:44:29.617Z,15.07
2018-09-12T05:46:57.878Z,23.37
2018-09-12T05:49:26.171Z,11.23
2018-09-12T05:51:54.441Z,22.07
2018-09-12T05:54:22.714Z,10.10
2018-09-12T05:56:50.991Z,11.93
2018-09-12T05:59:19.286Z,15.30
2018-09-12T06:01:47.534Z,17.50
2018-09-12T06:04:15.803Z,17.17
2018-09-12T06:06:44.172Z,15.80
2018-09-12T06:09:12.439Z,11.73
2018-09-12T06:11:40.690Z,12.50
2018-09-12T06:14:09.070Z,13.13
2018-09-12T06:16:37.328Z,14.10
2018-09-12T06:19:05.607Z,14.47
2018-09-12T06:21:33.859Z,13.60
2018-09-12T06:24:02.117Z,14.40
2018-09-12T06:26:30.367Z,16.20
2018-09-12T06:28:58.716Z,24.73
2018-09-12T06:31:26.962Z,14.93
2018-09-12T06:33:55.267Z,13.13
2018-09-12T06:36:23.610Z,16.73
2018-09-12T06:38:51.867Z,20.43
2018-09-12T06:41:20.106Z,12.33
2018-09-12T06:43:48.803Z,14.03
2018-09-12T06:46:17.050Z,14.57
2018-09-12T06:48:45.444Z,16.27
2018-09-12T06:51:13.682Z,14.57
2018-09-12T06:53:41.930Z,18.03
2018-09-12T06:56:10.277Z,17.27
2018-09-12T06:58:38.553Z,18.70
2018-09-12T07:01:07.177Z,18.40
2018-09-12T07:03:35.442Z,19.07
2018-09-12T07:06:03.798Z,14.73
2018-09-12T07:08:32.073Z,15.33
2018-09-12T07:11:00.329Z,17.30
2018-09-12T07:13:28.627Z,13.40
2018-09-12T07:15:56.882Z,17.60
2018-09-12T07:18:25.134Z,13.37
2018-09-12T07:20:53.376Z,15.77
2018-09-12T07:23:21.613Z,13.23
2018-09-12T07:25:49.851Z,14.57
2018-09-12T07:28:18.117Z,15.07
2018-09-12T07:30:46.371Z,10.80
2018-09-12T07:33:14.622Z,15.17
2018-09-12T07:35:42.878Z,19.20
2018-09-12T07:38:11.140Z,13.97
2018-09-12T07:40:39.370Z,9.17
2018-09-12T07:43:07.636Z,15.43
2018-09-12T07:45:35.884Z,10.03
2018-09-12T07:48:04.152Z,19.43
2018-09-12T07:50:32.410Z,15.30
2018-09-12T07:53:00.685Z,12.30
2018-09-12T07:55:28.918Z,14.33
2018-09-12T07:57:57.187Z,10.13
2018-09-12T08:00:25.499Z,10.77
2018-09-12T08:02:53.695Z,11.47
2018-09-12T08:05:21.948Z,14.33
2018-09-12T08:07:50.206Z,15.37
2018-09-12T08:10:18.478Z,10.93
2018-09-12T08:12:46.762Z,12.10
2018-09-12T08:15:15.068Z,13.17
2018-09-12T08:17:43.435Z,12.93
2018-09-12T08:20:11.815Z,9.57
2018-09-12T08:22:40.071Z,10.17
2018-09-12T08:25:08.368Z,13.50
2018-09-12T08:27:36.615Z,7.53
2018-09-12T08:30:04.955Z,12.53
2018-09-12T08:32:33.205Z,10.90
2018-09-12T08:35:01.455Z,9.10
2018-09-12T08:37:29.726Z,11.45
2018-09-12T08:39:58.009Z,11.90
2018-09-12T08:42:26.311Z,14.07
2018-09-12T08:44:54.669Z,10.28
2018-09-12T08:47:22.921Z,6.95
2018-09-12T08:49:51.226Z,13.10
2018-09-12T08:52:19.499Z,10.50
2018-09-12T08:54:47.782Z,10.60
2018-09-12T08:57:16.030Z,10.10
2018-09-12T08:59:44.287Z,13.15
2018-09-12T09:02:12.534Z,10.23
2018-09-12T09:04:40.909Z,8.50
2018-09-12T09:07:09.151Z,11.57
2018-09-12T09:09:37.489Z,7.92
2018-09-12T09:12:05.409Z,9.05
2018-09-12T09:14:33.669Z,9.18
2018-09-12T09:17:01.919Z,7.70
2018-09-12T09:19:30.180Z,7.17
2018-09-12T09:21:58.430Z,6.80
2018-09-12T09:24:26.707Z,8.35
2018-09-12T09:26:54.947Z,6.83
2018-09-12T09:29:23.211Z,6.55
2018-09-12T09:31:51.498Z,8.23
2018-09-12T09:34:19.829Z,7.25
2018-09-12T09:36:48.075Z,8.18
2018-09-12T09:39:16.346Z,10.50
2018-09-12T09:41:44.661Z,5.83
2018-09-12T09:44:12.918Z,9.58
2018-09-12T09:46:41.173Z,8.48
2018-09-12T09:49:09.443Z,4.92
2018-09-12T09:51:37.771Z,9.33
2018-09-12T09:54:06.039Z,6.55
2018-09-12T09:56:34.304Z,12.63
2018-09-12T09:59:02.566Z,6.93
2018-09-12T10:01:36.338Z,8.07
2018-09-12T10:04:10.061Z,7.77
2018-09-12T10:06:43.923Z,11.10
2018-09-12T10:09:17.552Z,18.20
2018-09-12T10:11:45.933Z,8.67
2018-09-12T10:14:14.166Z,10.63
2018-09-12T10:16:42.461Z,12.50
2018-09-12T10:19:10.736Z,9.93
2018-09-12T10:21:38.965Z,7.47
2018-09-12T10:24:07.299Z,8.33
2018-09-12T10:26:35.526Z,8.03
2018-09-12T10:29:03.783Z,9.23
2018-09-12T10:31:32.023Z,7.33
2018-09-12T10:34:00.266Z,9.70
2018-09-12T10:36:28.515Z,8.10
2018-09-12T10:38:56.767Z,7.97
2018-09-12T10:41:25.031Z,7.47
2018-09-12T10:43:53.514Z,13.33
2018-09-12T10:46:21.998Z,9.87
2018-09-12T10:48:50.271Z,10.63
2018-09-12T10:51:18.518Z,7.80
2018-09-12T10:53:46.830Z,8.57
2018-09-12T10:56:15.214Z,11.83
2018-09-12T10:58:43.456Z,9.90
2018-09-12T11:01:11.715Z,14.67
2018-09-12T11:03:39.944Z,6.77
2018-09-12T11:06:08.418Z,9.27
2018-09-12T11:08:36.650Z,5.40
2018-09-12T11:11:04.962Z,10.87
2018-09-12T11:13:33.451Z,9.20
2018-09-12T11:16:01.733Z,10.00
2018-09-12T11:18:29.989Z,4.63
2018-09-12T11:20:58.261Z,9.70
2018-09-12T11:23:26.649Z,14.70
2018-09-12T11:25:55.052Z,6.37
2018-09-12T11:28:23.335Z,7.80
2018-09-12T11:30:51.582Z,6.97
2018-09-12T11:33:19.880Z,7.43
2018-09-12T11:35:48.363Z,13.60
2018-09-12T11:38:16.673Z,7.00
2018-09-12T11:40:45.023Z,8.83
2018-09-12T11:43:13.291Z,6.93
2018-09-12T11:45:41.546Z,9.87
2018-09-12T11:48:09.797Z,7.60
2018-09-12T11:50:38.066Z,7.57
2018-09-12T11:53:06.408Z,8.13
2018-09-12T11:55:34.879Z,6.17
2018-09-12T11:58:03.047Z,6.80
2018-09-12T12:00:31.343Z,7.40
2018-09-12T12:02:59.577Z,13.13
2018-09-12T12:05:27.899Z,7.43
2018-09-12T12:07:56.161Z,8.77
2018-09-12T12:10:24.459Z,6.37
2018-09-12T12:12:52.677Z,9.47
2018-09-12T12:15:21.040Z,10.97
2018-09-12T12:17:49.248Z,14.13
2018-09-12T12:20:17.514Z,17.17
2018-09-12T12:22:45.746Z,8.50
2018-09-12T12:25:13.990Z,9.23
2018-09-12T12:27:42.262Z,7.07
2018-09-12T12:30:10.522Z,5.67
2018-09-12T12:32:38.750Z,15.73
2018-09-12T12:35:07.028Z,8.83
2018-09-12T12:37:35.259Z,7.57
2018-09-12T12:40:03.549Z,14.33
2018-09-12T12:42:31.783Z,8.73
2018-09-12T12:45:00.030Z,6.57
2018-09-12T12:47:28.515Z,5.13
2018-09-12T12:49:56.899Z,9.53
2018-09-12T12:52:25.150Z,11.63
2018-09-12T12:54:53.554Z,11.23
2018-09-12T12:57:21.804Z,11.23
2018-09-12T12:59:50.044Z,8.03
2018-09-12T13:02:18.297Z,6.50
2018-09-12T13:04:46.539Z,7.33
2018-09-12T13:07:14.837Z,8.80
2018-09-12T13:09:43.083Z,10.67
2018-09-12T13:12:11.394Z,5.93
2018-09-12T13:14:39.662Z,5.97
2018-09-12T13:17:07.889Z,4.90
2018-09-12T13:19:36.142Z,5.07
2018-09-12T13:22:04.402Z,5.13
2018-09-12T13:24:32.641Z,7.43
2018-09-12T13:27:00.954Z,7.17
2018-09-12T13:29:29.200Z,7.33
2018-09-12T13:31:57.456Z,11.27
2018-09-12T13:34:25.798Z,6.13
2018-09-12T13:36:53.974Z,6.13
2018-09-12T13:39:22.211Z,8.23
2018-09-12T13:41:50.462Z,8.97
2018-09-12T13:44:18.741Z,5.83
2018-09-12T13:46:47.079Z,8.67
2018-09-12T13:49:15.326Z,6.27
2018-09-12T13:51:43.576Z,5.37
2018-09-12T13:54:11.806Z,8.80
2018-09-12T13:56:40.073Z,5.03
2018-09-12T13:59:08.302Z,4.77
2018-09-12T14:01:36.561Z,7.50
2018-09-12T14:04:04.791Z,6.03
2018-09-12T14:06:33.088Z,7.47
2018-09-12T14:09:01.341Z,4.37
2018-09-12T14:11:29.627Z,9.03
2018-09-12T14:13:57.921Z,8.40
2018-09-12T14:16:26.172Z,7.03
2018-09-12T14:18:54.417Z,33.30
2018-09-12T14:21:22.674Z,16.50
2018-09-12T14:23:50.928Z,12.23
2018-09-12T14:26:19.174Z,4.83
2018-09-12T14:28:47.486Z,8.77
2018-09-12T14:31:15.742Z,7.03
2018-09-12T14:33:44.023Z,11.07
2018-09-12T14:36:12.265Z,10.07
2018-09-12T14:38:40.685Z,7.00
2018-09-12T14:41:09.186Z,7.47
2018-09-12T14:43:37.562Z,5.20
2018-09-12T14:46:05.789Z,3.80
2018-09-12T14:48:34.034Z,9.07
2018-09-12T14:51:02.292Z,5.07
2018-09-12T14:53:30.568Z,3.43
2018-09-12T14:55:58.789Z,2.43
2018-09-12T14:58:27.042Z,5.63
2018-09-12T15:00:55.590Z,4.27
2018-09-12T15:03:24.101Z,4.17
2018-09-12T15:05:52.334Z,4.43
2018-09-12T15:08:20.604Z,3.40
2018-09-12T15:10:48.863Z,2.40
2018-09-12T15:13:17.128Z,2.77
2018-09-12T15:15:45.476Z,6.00
2018-09-12T15:18:13.738Z,4.47
2018-09-12T15:20:41.977Z,2.70
2018-09-12T15:23:10.226Z,7.97
2018-09-12T15:25:38.584Z,7.67
2018-09-12T15:28:06.964Z,6.50
2018-09-12T15:30:35.210Z,2.70
2018-09-12T15:33:03.519Z,5.07
2018-09-12T15:35:31.759Z,4.90
2018-09-12T15:38:00.073Z,11.17
2018-09-12T15:40:28.557Z,6.57
2018-09-12T15:42:56.831Z,8.77
2018-09-12T15:45:25.087Z,4.97
2018-09-12T15:47:53.603Z,5.03
2018-09-12T15:50:23.598Z,6.40
2018-09-12T15:52:51.941Z,3.73
2018-09-12T15:55:20.217Z,3.37
2018-09-12T15:57:48.580Z,2.57
2018-09-12T16:00:16.817Z,4.10
2018-09-12T16:02:45.267Z,3.80
2018-09-12T16:05:13.689Z,5.60
2018-09-12T16:07:41.974Z,3.00
2018-09-12T16:10:10.394Z,2.90
2018-09-12T16:12:38.831Z,2.53
2018-09-12T16:15:07.107Z,5.97
2018-09-12T16:17:35.486Z,8.70
2018-09-12T16:20:03.864Z,4.40
2018-09-12T16:22:32.166Z,4.30
2018-09-12T16:25:00.528Z,5.83
2018-09-12T16:27:28.802Z,4.20
2018-09-12T16:29:57.055Z,4.03
2018-09-12T16:32:25.390Z,5.63
2018-09-12T16:34:53.681Z,5.20
2018-09-12T16:37:21.930Z,4.07
2018-09-12T16:39:50.193Z,4.93
2018-09-12T16:42:18.466Z,5.60
2018-09-12T16:44:46.709Z,6.50
2018-09-12T16:47:15.023Z,8.50
2018-09-12T16:49:43.291Z,11.93
2018-09-12T16:52:11.577Z,3.67
2018-09-12T16:54:39.842Z,3.70
2018-09-12T16:57:08.133Z,2.60
2018-09-12T16:59:36.381Z,6.77
2018-09-12T17:02:04.688Z,12.63
2018-09-12T17:04:32.946Z,6.30
2018-09-12T17:07:01.191Z,9.83
2018-09-12T17:09:29.442Z,3.37
2018-09-12T17:11:57.682Z,7.67
2018-09-12T17:14:25.938Z,5.27
2018-09-12T17:16:54.382Z,5.93
2018-09-12T17:19:22.665Z,8.37
2018-09-12T17:21:51.215Z,6.20
2018-09-12T17:24:19.492Z,7.23
2018-09-12T17:26:47.784Z,11.27
2018-09-12T17:29:16.160Z,11.17
2018-09-12T17:31:44.952Z,7.63
2018-09-12T17:34:13.294Z,4.67
2018-09-12T17:36:41.702Z,9.13
2018-09-12T17:39:10.509Z,5.47
2018-09-12T17:41:38.903Z,9.37
2018-09-12T17:44:07.363Z,6.33
2018-09-12T17:46:35.735Z,8.70
2018-09-12T17:49:04.436Z,9.10
2018-09-12T17:51:33.961Z,5.63
2018-09-12T17:54:02.866Z,7.57
2018-09-12T17:56:31.214Z,10.10
2018-09-12T17:58:59.625Z,4.57
2018-09-12T18:01:27.962Z,7.00
2018-09-12T18:03:56.338Z,6.63
2018-09-12T18:06:24.778Z,7.97
2018-09-12T18:08:53.321Z,10.73
2018-09-12T18:11:22.792Z,7.17
2018-09-12T18:13:51.201Z,7.43
2018-09-12T18:16:19.778Z,14.67
2018-09-12T18:18:48.532Z,6.03
2018-09-12T18:21:16.832Z,6.73
2018-09-12T18:23:45.298Z,9.93
2018-09-12T18:26:13.664Z,5.00
2018-09-12T18:28:42.018Z,11.50
2018-09-12T18:31:10.304Z,5.47
2018-09-12T18:33:38.621Z,7.63
2018-09-12T18:36:06.992Z,7.17
2018-09-12T18:38:35.246Z,6.30
2018-09-12T18:41:03.658Z,3.87
2018-09-12T18:43:31.962Z,6.90
2018-09-12T18:46:00.267Z,7.27
2018-09-12T18:48:28.617Z,6.00
2018-09-12T18:50:57.093Z,6.60
2018-09-12T18:53:25.574Z,8.50
2018-09-12T18:55:53.987Z,7.03
2018-09-12T18:58:22.313Z,5.63
2018-09-12T19:00:50.667Z,13.17
2018-09-12T19:03:19.058Z,5.63
2018-09-12T19:05:47.354Z,6.87
2018-09-12T19:08:15.629Z,8.60
2018-09-12T19:10:44.007Z,7.07
2018-09-12T19:13:12.312Z,7.90
2018-09-12T19:15:40.529Z,4.37
2018-09-12T19:18:08.773Z,8.10
2018-09-12T19:20:37.147Z,9.10
2018-09-12T19:23:05.592Z,5.10
2018-09-12T19:25:33.835Z,4.47
2018-09-12T19:28:02.093Z,7.73
2018-09-12T19:30:30.385Z,6.90
2018-09-12T19:32:58.736Z,6.20
2018-09-12T19:35:26.966Z,7.40
2018-09-12T19:37:55.267Z,5.10
2018-09-12T19:40:23.671Z,6.90
2018-09-12T19:42:51.941Z,6.03
2018-09-12T19:45:20.176Z,4.57
2018-09-12T19:47:49.525Z,7.47
2018-09-12T19:50:17.871Z,8.23
2018-09-12T19:52:46.185Z,5.40
2018-09-12T19:55:14.430Z,8.50
2018-09-12T19:57:42.787Z,8.00
2018-09-12T20:00:15.599Z,6.43
2018-09-12T20:02:43.870Z,7.40
2018-09-12T20:05:12.162Z,6.43
2018-09-12T20:07:40.459Z,7.33
2018-09-12T20:10:08.735Z,7.43
2018-09-12T20:12:37.042Z,8.83
2018-09-12T20:15:05.346Z,7.33
2018-09-12T20:17:33.648Z,10.17
2018-09-12T20:20:01.894Z,9.80
2018-09-12T20:22:30.324Z,12.20
2018-09-12T20:24:58.682Z,8.87
2018-09-12T20:27:27.002Z,11.80
2018-09-12T20:29:55.388Z,12.23
2018-09-12T20:32:23.639Z,13.20
2018-09-12T20:34:52.023Z,9.47
2018-09-12T20:37:20.397Z,10.67
2018-09-12T20:39:48.661Z,25.10
2018-09-12T20:42:16.930Z,18.87
2018-09-12T20:44:45.201Z,22.57
2018-09-12T20:47:13.489Z,19.87
2018-09-12T20:49:41.762Z,12.73
2018-09-12T20:52:10.039Z,12.57
2018-09-12T20:54:38.340Z,16.23
2018-09-12T20:57:06.642Z,16.20
2018-09-12T20:59:34.931Z,13.87
2018-09-12T21:02:10.032Z,11.87
2018-09-12T21:04:38.290Z,12.60
2018-09-12T21:07:06.609Z,12.30
2018-09-12T21:09:34.865Z,13.90
2018-09-12T21:12:03.247Z,13.17
2018-09-12T21:14:31.923Z,14.33
2018-09-12T21:17:00.217Z,14.77
2018-09-12T21:19:28.469Z,15.97
2018-09-12T21:21:56.790Z,15.70
2018-09-12T21:24:25.081Z,19.43
2018-09-12T21:26:53.345Z,13.90
2018-09-12T21:29:21.617Z,15.50
2018-09-12T21:31:49.885Z,16.37
2018-09-12T21:34:18.260Z,20.03
2018-09-12T21:36:46.538Z,17.90
2018-09-12T21:39:14.784Z,17.83
2018-09-12T21:41:44.024Z,17.23
2018-09-12T21:44:12.297Z,21.47
2018-09-12T21:46:40.678Z,18.43
2018-09-12T21:49:08.936Z,18.50
2018-09-12T21:51:37.335Z,16.47
2018-09-12T21:54:05.726Z,19.13
2018-09-12T21:56:35.165Z,19.53
2018-09-12T21:59:04.725Z,17.53
2018-09-12T22:01:34.037Z,17.23
2018-09-12T22:04:02.420Z,15.83
2018-09-12T22:06:30.795Z,18.13
2018-09-12T22:08:59.241Z,18.43
2018-09-12T22:11:27.492Z,20.10
2018-09-12T22:13:56.642Z,18.37
2018-09-12T22:16:25.010Z,18.40
2018-09-12T22:18:53.291Z,19.60
2018-09-12T22:21:21.539Z,19.03
2018-09-12T22:23:49.803Z,19.33
2018-09-12T22:26:18.045Z,18.30
2018-09-12T22:28:46.328Z,20.23
2018-09-12T22:31:14.598Z,19.47
2018-09-12T22:33:42.887Z,18.23
2018-09-12T22:36:11.173Z,22.13
2018-09-12T22:38:39.441Z,19.03
2018-09-12T22:41:07.797Z,18.03
2018-09-12T22:43:36.046Z,17.80
2018-09-12T22:46:04.302Z,17.93
2018-09-12T22:48:32.841Z,19.87
2018-09-12T22:51:01.535Z,18.30
2018-09-12T22:53:30.008Z,14.97
2018-09-12T22:55:58.591Z,18.77
2018-09-12T22:58:26.852Z,17.17
2018-09-12T23:00:55.094Z,15.90
2018-09-12T23:03:23.353Z,17.60
2018-09-12T23:05:51.702Z,16.90
2018-09-12T23:08:19.953Z,20.47
2018-09-12T23:10:48.308Z,17.93
2018-09-12T23:13:16.555Z,17.53
2018-09-12T23:15:44.897Z,17.57
2018-09-12T23:18:13.306Z,16.30
2018-09-12T23:20:41.541Z,17.63
2018-09-12T23:23:09.822Z,16.17
2018-09-12T23:25:38.082Z,20.70
2018-09-12T23:28:06.358Z,15.77
2018-09-12T23:30:34.655Z,17.03
2018-09-12T23:33:02.930Z,15.90
2018-09-12T23:35:31.206Z,18.03
2018-09-12T23:37:59.486Z,16.67
2018-09-12T23:40:27.802Z,19.20
2018-09-12T23:42:56.066Z,14.27
2018-09-12T23:45:24.517Z,14.00
2018-09-12T23:47:52.842Z,15.87
2018-09-12T23:50:21.070Z,16.17
2018-09-12T23:52:49.349Z,18.43
2018-09-12T23:55:17.606Z,15.83
2018-09-12T23:57:45.890Z,14.20
